createdAt,value
2019-03-27T00:00:41.146Z,10.90
2019-03-27T00:03:09.610Z,10.80
2019-03-27T00:05:38.150Z,10.80
2019-03-27T00:08:06.590Z,10.80
2019-03-27T00:10:35.014Z,10.80
2019-03-27T00:13:03.556Z,10.80
2019-03-27T00:15:31.991Z,10.80
2019-03-27T00:18:00.455Z,10.80
2019-03-27T00:20:28.911Z,10.80
2019-03-27T00:22:57.375Z,10.80
2019-03-27T00:25:25.794Z,10.80
2019-03-27T00:27:54.270Z,10.80
2019-03-27T00:30:22.707Z,10.80
2019-03-27T00:32:51.471Z,10.70
2019-03-27T00:35:19.942Z,10.60
2019-03-27T00:37:48.406Z,10.50
2019-03-27T00:40:17.502Z,10.50
2019-03-27T00:42:45.923Z,10.50
2019-03-27T00:45:25.851Z,10.50
2019-03-27T00:47:45.165Z,10.40
2019-03-27T00:50:13.829Z,10.40
2019-03-27T00:52:42.238Z,10.30
2019-03-27T00:55:11.170Z,10.30
2019-03-27T00:57:39.585Z,10.30
2019-03-27T01:00:13.136Z,10.20
2019-03-27T01:02:41.580Z,10.30
2019-03-27T01:05:10.515Z,10.20
2019-03-27T01:07:38.924Z,10.20
2019-03-27T01:10:07.896Z,10.10
2019-03-27T01:12:36.319Z,10.10
2019-03-27T01:15:05.397Z,10.10
2019-03-27T01:17:33.907Z,10.10
2019-03-27T01:20:02.727Z,10.10
2019-03-27T01:22:31.144Z,10.10
2019-03-27T01:24:59.616Z,10.10
2019-03-27T01:27:28.027Z,10.10
2019-03-27T01:29:56.510Z,10.10
2019-03-27T01:32:24.946Z,10.10
2019-03-27T01:34:53.394Z,10.00
2019-03-27T01:37:21.814Z,10.00
2019-03-27T01:39:50.676Z,9.90
2019-03-27T01:42:19.112Z,9.80
2019-03-27T01:44:47.573Z,9.70
2019-03-27T01:47:15.999Z,9.70
2019-03-27T01:49:44.439Z,9.50
2019-03-27T01:52:12.861Z,9.80
2019-03-27T01:54:41.310Z,9.80
2019-03-27T01:57:09.732Z,9.70
2019-03-27T01:59:38.190Z,9.70
2019-03-27T02:02:06.612Z,9.80
2019-03-27T02:04:35.071Z,9.80
2019-03-27T02:07:03.499Z,9.80
2019-03-27T02:09:31.961Z,9.90
2019-03-27T02:12:00.378Z,9.90
2019-03-27T02:14:28.909Z,9.90
2019-03-27T02:16:57.350Z,9.90
2019-03-27T02:19:25.863Z,9.90
2019-03-27T02:21:54.312Z,9.90
2019-03-27T02:24:22.792Z,9.90
2019-03-27T02:26:51.203Z,9.90
2019-03-27T02:29:19.680Z,9.90
2019-03-27T02:31:48.432Z,9.80
2019-03-27T02:34:16.873Z,9.80
2019-03-27T02:36:45.337Z,9.80
2019-03-27T02:39:13.770Z,9.80
2019-03-27T02:41:42.945Z,9.60
2019-03-27T02:44:11.398Z,9.40
2019-03-27T02:46:39.948Z,9.30
2019-03-27T02:49:08.356Z,9.20
2019-03-27T02:51:36.824Z,9.00
2019-03-27T02:54:05.246Z,9.00
2019-03-27T02:56:33.715Z,8.90
2019-03-27T02:59:02.133Z,8.80
2019-03-27T03:01:30.597Z,8.70
2019-03-27T03:03:59.002Z,8.70
2019-03-27T03:06:27.473Z,8.50
2019-03-27T03:08:55.903Z,8.60
2019-03-27T03:11:24.797Z,8.60
2019-03-27T03:13:53.216Z,8.70
2019-03-27T03:16:22.159Z,8.70
2019-03-27T03:18:50.620Z,8.70
2019-03-27T03:21:19.130Z,8.50
2019-03-27T03:23:47.600Z,8.60
2019-03-27T03:26:16.067Z,8.50
2019-03-27T03:28:44.488Z,8.40
2019-03-27T03:31:12.954Z,8.40
2019-03-27T03:33:41.365Z,8.30
2019-03-27T03:36:09.840Z,8.10
2019-03-27T03:38:38.268Z,8.00
2019-03-27T03:41:06.819Z,7.90
2019-03-27T03:43:35.237Z,7.80
2019-03-27T03:46:03.802Z,7.70
2019-03-27T03:48:32.224Z,7.50
2019-03-27T03:51:02.808Z,7.40
2019-03-27T03:53:31.843Z,7.30
2019-03-27T03:56:01.404Z,7.20
2019-03-27T03:58:31.672Z,7.20
2019-03-27T04:01:01.102Z,7.20
2019-03-27T04:03:32.026Z,7.00
2019-03-27T04:06:00.491Z,6.90
2019-03-27T04:08:28.911Z,6.90
2019-03-27T04:10:57.815Z,6.90
2019-03-27T04:13:26.255Z,6.90
2019-03-27T04:15:54.687Z,6.90
2019-03-27T04:18:23.157Z,6.80
2019-03-27T04:20:51.628Z,6.90
2019-03-27T04:23:20.120Z,7.00
2019-03-27T04:26:07.907Z,6.90
2019-03-27T04:28:18.810Z,6.70
2019-03-27T04:30:47.242Z,6.70
2019-03-27T04:33:15.692Z,6.50
2019-03-27T04:35:44.128Z,6.40
2019-03-27T04:38:12.575Z,6.40
2019-03-27T04:40:40.996Z,6.30
2019-03-27T04:43:10.206Z,6.20
2019-03-27T04:45:38.634Z,6.10
2019-03-27T04:48:07.099Z,6.00
2019-03-27T04:50:35.531Z,5.80
2019-03-27T04:53:04.094Z,5.80
2019-03-27T04:55:32.931Z,5.60
2019-03-27T04:58:01.386Z,5.60
2019-03-27T05:00:29.795Z,5.50
2019-03-27T05:02:58.266Z,5.50
2019-03-27T05:05:26.695Z,5.30
2019-03-27T05:07:55.192Z,5.30
2019-03-27T05:10:23.700Z,5.40
2019-03-27T05:12:52.579Z,5.30
2019-03-27T05:15:20.994Z,5.00
2019-03-27T05:17:49.455Z,4.80
2019-03-27T05:20:18.281Z,4.70
2019-03-27T05:22:46.766Z,4.70
2019-03-27T05:25:15.182Z,4.70
2019-03-27T05:27:43.652Z,4.80
2019-03-27T05:30:14.350Z,5.10
2019-03-27T05:32:42.813Z,5.20
2019-03-27T05:35:11.675Z,5.50
2019-03-27T05:37:40.185Z,5.60
2019-03-27T05:40:08.914Z,5.70
2019-03-27T05:42:38.298Z,5.70
2019-03-27T05:45:08.162Z,5.60
2019-03-27T05:47:37.018Z,5.40
2019-03-27T05:50:06.355Z,5.50
2019-03-27T05:52:34.809Z,5.40
2019-03-27T05:55:03.415Z,5.50
2019-03-27T05:57:32.266Z,5.60
2019-03-27T06:00:00.798Z,5.70
2019-03-27T06:02:29.766Z,5.70
2019-03-27T06:04:58.925Z,5.70
2019-03-27T06:07:28.226Z,5.70
2019-03-27T06:09:57.406Z,5.70
2019-03-27T06:12:26.251Z,5.80
2019-03-27T06:14:54.689Z,5.80
2019-03-27T06:17:24.035Z,5.80
2019-03-27T06:19:52.703Z,5.90
2019-03-27T06:22:21.143Z,5.90
2019-03-27T06:24:50.326Z,6.00
2019-03-27T06:27:19.554Z,6.10
2019-03-27T06:29:48.059Z,6.00
2019-03-27T06:32:16.470Z,6.10
2019-03-27T06:34:44.910Z,6.10
2019-03-27T06:37:13.306Z,6.20
2019-03-27T06:39:42.451Z,6.40
2019-03-27T06:42:11.668Z,6.50
2019-03-27T06:44:40.502Z,6.90
2019-03-27T06:47:08.874Z,7.20
2019-03-27T06:49:38.062Z,7.50
2019-03-27T06:52:06.461Z,8.00
2019-03-27T06:54:34.891Z,8.30
2019-03-27T06:57:03.327Z,8.70
2019-03-27T06:59:31.771Z,9.20
2019-03-27T07:02:00.166Z,9.60
2019-03-27T07:04:28.602Z,10.00
2019-03-27T07:06:57.010Z,10.30
2019-03-27T07:09:26.928Z,10.50
2019-03-27T07:11:55.366Z,10.70
2019-03-27T07:14:23.810Z,10.80
2019-03-27T07:16:52.961Z,11.00
2019-03-27T07:19:22.263Z,11.10
2019-03-27T07:21:51.987Z,11.20
2019-03-27T07:24:20.431Z,11.30
2019-03-27T07:26:48.830Z,11.50
2019-03-27T07:29:19.141Z,11.60
2019-03-27T07:31:47.775Z,11.80
2019-03-27T07:34:16.602Z,11.80
2019-03-27T07:36:45.186Z,12.00
2019-03-27T07:39:14.635Z,12.20
2019-03-27T07:41:43.033Z,12.30
2019-03-27T07:44:11.563Z,12.40
2019-03-27T07:46:39.983Z,12.50
2019-03-27T07:49:08.382Z,12.60
2019-03-27T07:51:36.879Z,12.70
2019-03-27T07:54:05.302Z,12.80
2019-03-27T07:56:33.739Z,12.90
2019-03-27T07:59:02.138Z,13.00
2019-03-27T08:01:30.585Z,13.10
2019-03-27T08:03:58.989Z,13.20
2019-03-27T08:06:27.426Z,13.30
2019-03-27T08:08:55.822Z,13.30
2019-03-27T08:11:24.330Z,13.40
2019-03-27T08:13:52.882Z,13.60
2019-03-27T08:16:21.754Z,13.60
2019-03-27T08:18:50.166Z,13.80
2019-03-27T08:21:18.610Z,13.90
2019-03-27T08:23:47.781Z,14.10
2019-03-27T08:26:17.085Z,14.20
2019-03-27T08:28:46.145Z,14.40
2019-03-27T08:31:15.142Z,14.50
2019-03-27T08:33:48.251Z,14.50
2019-03-27T08:36:16.613Z,14.50
2019-03-27T08:38:45.111Z,14.70
2019-03-27T08:41:13.742Z,14.80
2019-03-27T08:43:42.723Z,15.00
2019-03-27T08:46:11.180Z,15.20
2019-03-27T08:48:39.638Z,15.50
2019-03-27T08:51:08.065Z,15.60
2019-03-27T08:53:36.510Z,15.90
2019-03-27T08:56:05.750Z,16.20
2019-03-27T08:58:34.183Z,16.40
2019-03-27T09:01:02.822Z,16.60
2019-03-27T09:03:31.349Z,16.50
2019-03-27T09:05:59.767Z,16.70
2019-03-27T09:08:28.183Z,16.80
2019-03-27T09:10:56.664Z,16.80
2019-03-27T09:13:25.565Z,16.90
2019-03-27T09:15:53.978Z,17.00
2019-03-27T09:18:22.523Z,17.20
2019-03-27T09:20:51.011Z,17.40
2019-03-27T09:23:19.472Z,17.40
2019-03-27T09:25:48.022Z,17.50
2019-03-27T09:28:16.539Z,17.40
2019-03-27T09:30:44.969Z,17.00
2019-03-27T09:33:13.442Z,17.00
2019-03-27T09:35:41.863Z,17.10
2019-03-27T09:38:10.301Z,17.10
2019-03-27T09:40:38.985Z,17.10
2019-03-27T09:43:07.611Z,17.10
2019-03-27T09:45:36.039Z,17.10
2019-03-27T09:48:04.733Z,17.20
2019-03-27T09:50:33.151Z,17.30
2019-03-27T09:53:02.004Z,17.30
2019-03-27T09:55:30.551Z,17.50
2019-03-27T09:57:58.971Z,17.50
2019-03-27T10:01:07.857Z,17.80
2019-03-27T10:03:36.355Z,18.00
2019-03-27T10:06:05.062Z,18.20
2019-03-27T10:08:33.547Z,18.50
2019-03-27T10:11:02.089Z,18.90
2019-03-27T10:13:30.504Z,19.00
2019-03-27T10:15:59.123Z,19.10
2019-03-27T10:18:27.505Z,19.20
2019-03-27T10:20:55.911Z,19.20
2019-03-27T10:23:24.427Z,19.50
2019-03-27T10:25:53.179Z,19.70
2019-03-27T10:28:21.617Z,19.90
2019-03-27T10:30:50.693Z,19.80
2019-03-27T10:33:19.107Z,19.80
2019-03-27T10:35:47.702Z,19.90
2019-03-27T10:38:16.287Z,19.90
2019-03-27T10:40:45.094Z,19.90
2019-03-27T10:43:13.520Z,20.00
2019-03-27T10:45:41.998Z,20.10
2019-03-27T10:48:10.402Z,20.60
2019-03-27T10:50:39.161Z,20.60
2019-03-27T10:53:07.644Z,20.50
2019-03-27T10:55:36.058Z,20.60
2019-03-27T10:58:04.474Z,20.30
2019-03-27T11:00:32.970Z,20.30
2019-03-27T11:03:01.390Z,20.40
2019-03-27T11:05:30.403Z,20.60
2019-03-27T11:07:58.967Z,20.30
2019-03-27T11:10:27.404Z,20.50
2019-03-27T11:12:55.835Z,20.50
2019-03-27T11:15:24.389Z,20.30
2019-03-27T11:17:52.822Z,20.20
2019-03-27T11:20:30.738Z,20.20
2019-03-27T11:22:52.371Z,20.40
2019-03-27T11:25:20.832Z,20.40
2019-03-27T11:27:49.243Z,20.30
2019-03-27T11:30:18.228Z,20.40
2019-03-27T11:32:46.684Z,20.20
2019-03-27T11:35:15.189Z,20.20
2019-03-27T11:37:43.735Z,19.90
2019-03-27T11:40:12.249Z,20.20
2019-03-27T11:42:40.666Z,20.20
2019-03-27T11:45:09.354Z,20.20
2019-03-27T11:47:37.750Z,20.20
2019-03-27T11:50:08.933Z,19.90
2019-03-27T11:52:37.437Z,19.90
2019-03-27T11:55:06.718Z,20.10
2019-03-27T11:57:35.135Z,20.00
2019-03-27T12:00:04.643Z,20.30
2019-03-27T12:02:33.054Z,20.20
2019-03-27T12:05:01.731Z,20.40
2019-03-27T12:07:30.213Z,20.50
2019-03-27T12:09:58.635Z,20.60
2019-03-27T12:12:27.574Z,20.50
2019-03-27T12:14:56.047Z,20.60
2019-03-27T12:17:24.459Z,20.60
2019-03-27T12:19:52.875Z,20.70
2019-03-27T12:22:21.384Z,20.90
2019-03-27T12:24:49.864Z,20.90
2019-03-27T12:27:18.284Z,20.60
2019-03-27T12:29:47.152Z,21.00
2019-03-27T12:32:15.570Z,20.90
2019-03-27T12:34:43.989Z,21.00
2019-03-27T12:37:12.536Z,20.70
2019-03-27T12:39:41.234Z,20.80
2019-03-27T12:42:10.775Z,21.00
2019-03-27T12:44:39.254Z,21.00
2019-03-27T12:47:07.680Z,20.70
2019-03-27T12:49:36.186Z,20.80
2019-03-27T12:52:05.598Z,20.80
2019-03-27T12:54:34.446Z,20.70
2019-03-27T12:57:02.851Z,20.50
2019-03-27T12:59:31.385Z,20.60
2019-03-27T13:01:59.828Z,20.90
2019-03-27T13:04:28.231Z,21.00
2019-03-27T13:06:56.764Z,21.00
2019-03-27T13:09:25.617Z,20.90
2019-03-27T13:11:54.014Z,20.90
2019-03-27T13:14:22.490Z,20.80
2019-03-27T13:16:52.320Z,21.00
2019-03-27T13:19:20.964Z,21.10
2019-03-27T13:21:49.488Z,21.10
2019-03-27T13:24:17.950Z,21.20
2019-03-27T13:26:46.363Z,21.30
2019-03-27T13:29:14.835Z,21.20
2019-03-27T13:31:43.252Z,21.10
2019-03-27T13:34:11.671Z,20.90
2019-03-27T13:36:45.079Z,20.90
2019-03-27T13:39:13.515Z,20.90
2019-03-27T13:41:41.932Z,20.90
2019-03-27T13:44:10.474Z,20.70
2019-03-27T13:46:38.920Z,20.60
2019-03-27T13:49:07.303Z,20.50
2019-03-27T13:51:40.965Z,20.60
2019-03-27T13:54:06.089Z,20.60
2019-03-27T13:56:34.511Z,20.80
2019-03-27T13:59:03.057Z,21.00
2019-03-27T14:01:31.476Z,21.00
2019-03-27T14:04:01.012Z,21.00
2019-03-27T14:06:29.551Z,20.90
2019-03-27T14:08:57.978Z,20.70
2019-03-27T14:11:26.503Z,20.60
2019-03-27T14:13:55.052Z,20.60
2019-03-27T14:16:23.498Z,20.50
2019-03-27T14:18:51.920Z,20.60
2019-03-27T14:21:23.148Z,20.50
2019-03-27T14:23:50.678Z,20.50
2019-03-27T14:26:19.871Z,20.50
2019-03-27T14:28:48.411Z,20.20
2019-03-27T14:31:16.839Z,20.30
2019-03-27T14:33:45.275Z,20.30
2019-03-27T14:36:13.735Z,20.30
2019-03-27T14:38:42.170Z,20.20
2019-03-27T14:41:10.587Z,20.10
2019-03-27T14:43:39.074Z,20.10
2019-03-27T14:46:07.491Z,20.00
2019-03-27T14:48:35.907Z,20.00
2019-03-27T14:51:04.679Z,19.90
2019-03-27T14:53:33.099Z,19.90
2019-03-27T14:56:01.514Z,19.90
2019-03-27T14:58:29.966Z,20.00
2019-03-27T15:00:58.486Z,19.90
2019-03-27T15:03:26.886Z,19.90
2019-03-27T15:05:55.362Z,19.70
2019-03-27T15:08:23.771Z,19.70
2019-03-27T15:10:52.345Z,19.70
2019-03-27T15:13:21.206Z,19.70
2019-03-27T15:15:49.724Z,19.70
2019-03-27T15:18:18.151Z,19.70
2019-03-27T15:20:46.617Z,19.70
2019-03-27T15:23:15.088Z,19.70
2019-03-27T15:25:43.543Z,19.70
2019-03-27T15:28:12.092Z,19.60
2019-03-27T15:30:40.920Z,19.60
2019-03-27T15:33:09.342Z,19.60
2019-03-27T15:35:37.800Z,19.50
2019-03-27T15:38:06.699Z,19.40
2019-03-27T15:40:40.782Z,19.30
2019-03-27T15:43:09.214Z,19.30
2019-03-27T15:45:37.724Z,19.30
2019-03-27T15:48:06.310Z,19.40
2019-03-27T15:50:34.727Z,19.40
2019-03-27T15:53:03.169Z,19.40
2019-03-27T15:55:31.627Z,19.40
2019-03-27T15:58:00.051Z,19.30
2019-03-27T16:00:28.470Z,19.30
2019-03-27T16:02:56.954Z,19.30
2019-03-27T16:05:25.477Z,19.20
2019-03-27T16:07:53.939Z,19.20
2019-03-27T16:10:22.696Z,19.20
2019-03-27T16:12:51.115Z,19.40
2019-03-27T16:15:19.535Z,19.40
2019-03-27T16:17:48.010Z,19.30
2019-03-27T16:20:16.446Z,19.20
2019-03-27T16:22:50.515Z,19.10
2019-03-27T16:25:15.339Z,19.00
2019-03-27T16:27:43.763Z,18.80
2019-03-27T16:30:12.583Z,18.70
2019-03-27T16:32:41.558Z,18.90
2019-03-27T16:35:10.455Z,18.60
2019-03-27T16:37:39.293Z,18.60
2019-03-27T16:40:08.069Z,18.60
2019-03-27T16:42:36.524Z,18.50
2019-03-27T16:45:05.857Z,18.50
2019-03-27T16:47:34.774Z,18.30
2019-03-27T16:50:04.023Z,18.20
2019-03-27T16:52:32.434Z,18.10
2019-03-27T16:55:00.983Z,18.00
2019-03-27T16:57:29.413Z,17.90
2019-03-27T16:59:57.822Z,17.80
2019-03-27T17:02:26.886Z,17.80
2019-03-27T17:04:55.768Z,17.70
2019-03-27T17:07:24.297Z,17.70
2019-03-27T17:09:53.352Z,17.70
2019-03-27T17:12:21.787Z,17.60
2019-03-27T17:14:50.714Z,17.50
2019-03-27T17:17:19.267Z,17.40
2019-03-27T17:19:47.692Z,17.40
2019-03-27T17:22:19.684Z,17.30
2019-03-27T17:24:46.459Z,17.20
2019-03-27T17:27:14.929Z,17.10
2019-03-27T17:29:43.334Z,17.10
2019-03-27T17:32:11.814Z,17.10
2019-03-27T17:34:40.243Z,17.00
2019-03-27T17:37:08.663Z,17.00
2019-03-27T17:39:37.156Z,17.00
2019-03-27T17:42:05.566Z,16.90
2019-03-27T17:44:33.991Z,16.80
2019-03-27T17:47:02.480Z,16.80
2019-03-27T17:49:30.898Z,16.70
2019-03-27T17:51:59.318Z,16.70
2019-03-27T17:54:27.926Z,16.70
2019-03-27T17:56:56.364Z,16.60
2019-03-27T17:59:24.788Z,16.50
2019-03-27T18:01:53.265Z,16.40
2019-03-27T18:04:21.691Z,16.40
2019-03-27T18:06:50.141Z,16.40
2019-03-27T18:09:18.671Z,16.30
2019-03-27T18:11:47.454Z,16.20
2019-03-27T18:14:15.879Z,16.10
2019-03-27T18:16:44.370Z,16.00
2019-03-27T18:19:12.799Z,15.90
2019-03-27T18:21:41.606Z,15.80
2019-03-27T18:24:10.076Z,15.70
2019-03-27T18:26:38.657Z,15.60
2019-03-27T18:29:07.074Z,15.50
2019-03-27T18:31:35.628Z,15.40
2019-03-27T18:34:04.156Z,15.40
2019-03-27T18:36:32.573Z,15.20
2019-03-27T18:39:01.136Z,15.10
2019-03-27T18:41:29.602Z,15.10
2019-03-27T18:43:58.024Z,15.00
2019-03-27T18:46:26.560Z,14.80
2019-03-27T18:48:55.026Z,14.60
2019-03-27T18:51:23.501Z,14.40
2019-03-27T18:53:59.492Z,14.20
2019-03-27T18:56:22.656Z,14.00
2019-03-27T18:58:51.081Z,13.80
2019-03-27T19:01:19.554Z,13.50
2019-03-27T19:03:47.969Z,13.30
2019-03-27T19:06:16.475Z,13.20
2019-03-27T19:08:44.954Z,13.00
2019-03-27T19:11:13.749Z,12.90
2019-03-27T19:13:42.183Z,12.70
2019-03-27T19:16:10.675Z,12.50
2019-03-27T19:18:39.100Z,12.40
2019-03-27T19:21:07.923Z,12.20
2019-03-27T19:23:36.388Z,12.10
2019-03-27T19:26:04.846Z,12.00
2019-03-27T19:28:33.315Z,12.00
2019-03-27T19:31:01.834Z,12.10
2019-03-27T19:33:30.382Z,12.20
2019-03-27T19:35:58.812Z,12.40
2019-03-27T19:38:27.238Z,12.30
2019-03-27T19:40:55.790Z,12.20
2019-03-27T19:43:24.267Z,12.10
2019-03-27T19:45:52.705Z,11.90
2019-03-27T19:48:21.568Z,11.70
2019-03-27T19:50:50.007Z,11.80
2019-03-27T19:53:18.434Z,11.80
2019-03-27T19:55:46.904Z,11.70
2019-03-27T19:58:15.317Z,11.50
2019-03-27T20:00:43.872Z,11.40
2019-03-27T20:03:12.784Z,11.40
2019-03-27T20:05:41.324Z,11.10
2019-03-27T20:08:09.826Z,11.10
2019-03-27T20:10:38.244Z,11.10
2019-03-27T20:13:06.714Z,11.00
2019-03-27T20:15:35.124Z,10.80
2019-03-27T20:18:03.924Z,10.60
2019-03-27T20:20:32.335Z,10.50
2019-03-27T20:23:13.962Z,10.60
2019-03-27T20:25:30.982Z,10.60
2019-03-27T20:27:59.453Z,10.70
2019-03-27T20:30:28.092Z,10.60
2019-03-27T20:32:56.503Z,10.50
2019-03-27T20:35:24.966Z,10.50
2019-03-27T20:37:53.398Z,10.50
2019-03-27T20:40:22.058Z,10.60
2019-03-27T20:42:52.256Z,10.50
2019-03-27T20:45:20.777Z,10.50
2019-03-27T20:47:49.226Z,10.60
2019-03-27T20:50:18.746Z,10.70
2019-03-27T20:52:47.216Z,10.50
2019-03-27T20:55:29.300Z,10.50
2019-03-27T20:57:45.967Z,10.40
2019-03-27T21:00:14.985Z,10.40
2019-03-27T21:02:43.406Z,10.30
2019-03-27T21:05:11.961Z,10.10
2019-03-27T21:07:40.366Z,10.00
2019-03-27T21:10:10.467Z,10.00
2019-03-27T21:12:38.878Z,9.90
2019-03-27T21:15:08.287Z,9.90
2019-03-27T21:17:36.715Z,9.90
2019-03-27T21:20:05.932Z,9.90
2019-03-27T21:22:34.791Z,9.90
2019-03-27T21:25:09.016Z,9.90
2019-03-27T21:27:33.953Z,10.10
2019-03-27T21:30:02.838Z,10.10
2019-03-27T21:32:31.775Z,10.20
2019-03-27T21:35:00.436Z,10.20
2019-03-27T21:37:28.894Z,10.10
2019-03-27T21:39:57.311Z,10.10
2019-03-27T21:42:25.763Z,10.10
2019-03-27T21:44:54.170Z,10.10
2019-03-27T21:47:22.636Z,10.20
2019-03-27T21:49:51.145Z,10.30
2019-03-27T21:52:19.601Z,10.30
2019-03-27T21:54:48.027Z,10.40
2019-03-27T21:57:16.483Z,10.40
2019-03-27T21:59:44.967Z,10.40
2019-03-27T22:02:13.578Z,10.40
2019-03-27T22:04:41.993Z,10.50
2019-03-27T22:07:10.439Z,10.50
2019-03-27T22:09:38.867Z,10.40
2019-03-27T22:12:07.301Z,10.50
2019-03-27T22:14:35.758Z,10.50
2019-03-27T22:17:04.630Z,10.50
2019-03-27T22:19:33.093Z,10.50
2019-03-27T22:22:01.502Z,10.50
2019-03-27T22:24:29.981Z,10.50
2019-03-27T22:26:58.438Z,10.20
2019-03-27T22:29:26.939Z,10.10
2019-03-27T22:31:55.362Z,10.00
2019-03-27T22:34:23.810Z,10.00
2019-03-27T22:36:52.240Z,9.80
2019-03-27T22:39:20.716Z,9.70
2019-03-27T22:41:49.133Z,9.70
2019-03-27T22:44:17.586Z,9.60
2019-03-27T22:46:46.015Z,9.50
2019-03-27T22:49:14.427Z,9.60
2019-03-27T22:51:42.880Z,9.70
2019-03-27T22:54:11.315Z,9.60
2019-03-27T22:56:39.865Z,9.70
2019-03-27T22:59:08.304Z,9.70
2019-03-27T23:01:44.707Z,9.70
2019-03-27T23:04:13.130Z,9.80
2019-03-27T23:06:41.575Z,9.80
2019-03-27T23:09:10.078Z,9.90
2019-03-27T23:11:38.531Z,9.90
2019-03-27T23:14:06.947Z,10.00
2019-03-27T23:16:35.439Z,10.00
2019-03-27T23:19:03.965Z,10.00
2019-03-27T23:21:32.445Z,10.00
2019-03-27T23:24:00.906Z,9.80
2019-03-27T23:26:29.396Z,9.80
2019-03-27T23:28:57.834Z,9.70
2019-03-27T23:31:26.422Z,9.70
2019-03-27T23:33:54.882Z,9.70
2019-03-27T23:36:23.623Z,9.70
2019-03-27T23:38:52.076Z,9.70
2019-03-27T23:41:20.482Z,9.60
2019-03-27T23:43:49.127Z,9.50
2019-03-27T23:46:17.850Z,9.40
2019-03-27T23:48:46.330Z,9.20
2019-03-27T23:51:14.758Z,9.10
2019-03-27T23:53:43.213Z,9.00
2019-03-27T23:56:16.797Z,8.70
2019-03-27T23:58:41.875Z,8.60
